Time;durP1;ratioP1;P1;durP2;ratioP2;P2;SDS_P1;SDS_P2;PMS_P1;PMS_P2;Temp;Humidity;BMP_temperature;BMP_pressure;BME280_temperature;BME280_humidity;BME280_pressure;Samples;Min_cycle;Max_cycle;Signal;HPM_P1;HPM_P2
2021/01/18 00:02:28;;;;;;;22.80;13.70;;;;;;;3.06;100.00;101130.15;650740;220;26936;-72
2021/01/18 00:04:56;;;;;;;26.00;13.57;;;;;;;3.02;100.00;101126.07;639246;222;24799;-73
2021/01/18 00:07:24;;;;;;;24.00;13.00;;;;;;;3.12;100.00;101125.55;652561;217;24741;-72
2021/01/18 00:09:52;;;;;;;25.03;12.90;;;;;;;3.21;100.00;101128.11;639644;222;24854;-73
2021/01/18 00:12:20;;;;;;;24.17;12.93;;;;;;;3.08;100.00;101124.48;635108;222;24785;-72
2021/01/18 00:14:48;;;;;;;29.37;12.80;;;;;;;3.15;100.00;101127.97;637339;222;24795;-72
2021/01/18 00:17:16;;;;;;;24.70;12.40;;;;;;;3.21;100.00;101126.83;640747;221;24805;-72
2021/01/18 00:19:44;;;;;;;24.23;12.40;;;;;;;3.16;100.00;101127.52;638836;221;24788;-72
2021/01/18 00:22:12;;;;;;;23.40;12.27;;;;;;;3.46;100.00;101122.13;639633;222;25038;-72
2021/01/18 00:24:40;;;;;;;26.00;12.77;;;;;;;3.47;100.00;101125.08;637990;221;26950;-72
2021/01/18 00:27:08;;;;;;;28.00;12.60;;;;;;;3.52;100.00;101126.16;644452;221;24798;-72
2021/01/18 00:29:36;;;;;;;27.97;11.77;;;;;;;3.47;100.00;101126.36;635718;222;24792;-72
2021/01/18 00:32:05;;;;;;;23.70;12.90;;;;;;;3.56;100.00;101131.05;642120;221;24807;-72
2021/01/18 00:34:33;;;;;;;21.37;12.50;;;;;;;3.42;100.00;101130.09;640851;222;24763;-73
2021/01/18 00:37:00;;;;;;;24.17;12.13;;;;;;;3.27;100.00;101136.37;644342;218;24773;-71
2021/01/18 00:39:28;;;;;;;25.23;12.20;;;;;;;3.32;100.00;101134.02;646922;221;24764;-72
2021/01/18 00:41:56;;;;;;;23.67;12.33;;;;;;;3.32;100.00;101134.84;652790;218;24740;-72
2021/01/18 00:44:24;;;;;;;24.10;12.00;;;;;;;3.23;100.00;101140.42;637208;221;24804;-72
2021/01/18 00:46:52;;;;;;;23.40;12.30;;;;;;;3.07;100.00;101141.63;643385;221;25090;-72
2021/01/18 00:49:20;;;;;;;30.75;14.05;;;;;;;3.24;100.00;101139.55;648202;218;32637;-72
2021/01/18 00:51:48;;;;;;;30.30;13.10;;;;;;;3.28;100.00;101135.45;649559;218;23636;-72
2021/01/18 00:54:16;;;;;;;20.43;10.80;;;;;;;3.31;100.00;101140.06;646299;221;24770;-72
2021/01/18 00:56:44;;;;;;;28.47;12.20;;;;;;;3.05;100.00;101138.77;644759;221;24812;-72
2021/01/18 00:59:12;;;;;;;23.80;12.03;;;;;;;3.08;100.00;101137.33;645378;221;24803;-72
2021/01/18 01:01:40;;;;;;;19.37;10.47;;;;;;;3.28;100.00;101144.91;639658;221;24873;-73
2021/01/18 01:04:08;;;;;;;24.77;11.50;;;;;;;3.28;100.00;101134.17;650766;217;25092;-73
2021/01/18 01:06:36;;;;;;;22.73;11.73;;;;;;;3.23;100.00;101132.27;645905;221;24828;-73
2021/01/18 01:09:04;;;;;;;26.35;13.20;;;;;;;3.43;100.00;101121.47;630860;221;33088;-72
2021/01/18 01:11:31;;;;;;;25.75;13.72;;;;;;;3.43;100.00;101130.46;634667;221;32812;-71
2021/01/18 01:13:59;;;;;;;22.50;10.73;;;;;;;3.36;100.00;101128.63;634744;221;23679;-72
2021/01/18 01:16:27;;;;;;;22.50;10.30;;;;;;;3.36;100.00;101129.09;634959;222;24830;-77
2021/01/18 01:18:55;;;;;;;18.40;12.10;;;;;;;3.66;100.00;101120.28;634044;221;32829;-72
2021/01/18 01:21:23;;;;;;;21.73;12.07;;;;;;;3.48;100.00;101128.02;651905;217;23651;-72
2021/01/18 01:23:51;;;;;;;20.77;12.40;;;;;;;3.26;100.00;101128.73;641464;222;24804;-72
2021/01/18 01:26:20;;;;;;;22.80;11.63;;;;;;;3.31;100.00;101134.47;637079;222;24801;-72
2021/01/18 01:28:48;;;;;;;25.17;10.37;;;;;;;3.22;100.00;101131.89;636849;222;24809;-72
2021/01/18 01:31:16;;;;;;;20.33;11.03;;;;;;;3.26;100.00;101136.45;646047;222;24795;-72
2021/01/18 01:33:44;;;;;;;14.87;9.90;;;;;;;3.12;100.00;101133.27;646809;218;24761;-72
2021/01/18 01:36:12;;;;;;;17.20;10.40;;;;;;;3.42;100.00;101136.52;652673;217;25090;-72
2021/01/18 01:38:40;;;;;;;19.17;9.10;;;;;;;3.19;100.00;101129.47;642527;222;28023;-72
2021/01/18 01:41:09;;;;;;;22.43;11.93;;;;;;;2.91;100.00;101136.41;643621;222;24868;-72
2021/01/18 01:43:36;;;;;;;17.30;10.67;;;;;;;2.72;100.00;101140.76;640967;222;24781;-72
2021/01/18 01:46:04;;;;;;;18.37;11.30;;;;;;;2.65;100.00;101145.33;655018;218;24780;-72
2021/01/18 01:48:32;;;;;;;19.53;10.93;;;;;;;2.62;100.00;101148.50;650308;218;26875;-71
2021/01/18 01:51:00;;;;;;;21.17;10.93;;;;;;;2.59;100.00;101145.63;648456;216;24799;-74
2021/01/18 01:53:28;;;;;;;20.23;11.60;;;;;;;2.56;100.00;101145.78;654986;217;24751;-74
2021/01/18 01:55:56;;;;;;;23.95;13.10;;;;;;;2.64;100.00;101154.40;635959;221;32832;-74
2021/01/18 01:58:24;;;;;;;19.40;11.57;;;;;;;2.62;100.00;101147.22;639308;221;23677;-73
2021/01/18 02:00:52;;;;;;;21.40;12.28;;;;;;;2.66;100.00;101153.41;637358;221;43865;-72
2021/01/18 02:03:21;;;;;;;20.60;11.37;;;;;;;2.66;100.00;101157.72;644190;221;26864;-72
2021/01/18 02:05:50;;;;;;;26.57;10.90;;;;;;;2.79;100.00;101152.39;646891;218;27003;-72
2021/01/18 02:08:17;;;;;;;21.03;9.83;;;;;;;2.86;100.00;101158.92;649412;219;24756;-72
2021/01/18 02:10:45;;;;;;;21.00;10.53;;;;;;;3.21;100.00;101152.07;654297;218;25955;-72
2021/01/18 02:13:20;;;;;;;18.80;9.30;;;;;;;3.08;100.00;101139.89;641604;221;25026;-72
2021/01/18 02:15:50;;;;;;;18.20;10.00;;;;;;;3.25;100.00;101147.18;646874;218;24779;-72
2021/01/18 02:18:22;;;;;;;18.40;8.60;;;;;;;3.28;100.00;101150.88;646083;221;24843;-72
2021/01/18 02:21:01;;;;;;;18.87;9.33;;;;;;;3.23;100.00;101151.99;647355;218;26922;-73
2021/01/18 02:23:42;;;;;;;16.07;8.73;;;;;;;3.30;100.00;101153.38;642100;221;24872;-72
2021/01/18 02:26:10;;;;;;;20.05;11.60;;;;;;;3.62;99.95;101149.19;638800;220;32744;-72
2021/01/18 02:28:53;;;;;;;17.53;9.47;;;;;;;3.31;100.00;101155.48;641144;221;23648;-72
2021/01/18 02:31:30;;;;;;;19.73;9.53;;;;;;;3.23;100.00;101157.13;637929;221;24982;-74
2021/01/18 02:34:08;;;;;;;21.70;10.95;;;;;;;3.81;98.65;101151.67;640399;222;32779;-72
2021/01/18 02:36:36;;;;;;;17.80;9.20;;;;;;;3.48;99.13;101151.17;642535;221;23707;-72
2021/01/18 02:39:05;;;;;;;17.10;10.93;;;;;;;3.90;97.89;101149.90;631534;221;33058;-73
2021/01/18 02:41:37;;;;;;;18.20;9.67;;;;;;;3.46;98.82;101158.13;647407;222;26861;-73
2021/01/18 02:44:06;;;;;;;13.97;8.10;;;;;;;3.47;99.19;101163.65;642937;221;24815;-72
2021/01/18 02:46:35;;;;;;;14.77;7.50;;;;;;;3.39;99.56;101164.50;648052;218;24785;-73
2021/01/18 02:49:03;;;;;;;12.90;7.20;;;;;;;3.25;99.99;101169.48;642372;222;24792;-72
2021/01/18 02:51:32;;;;;;;15.47;7.50;;;;;;;3.46;99.64;101168.87;643695;219;24801;-72
2021/01/18 02:54:01;;;;;;;14.43;6.67;;;;;;;3.37;99.81;101173.17;639437;222;24883;-72
2021/01/18 02:56:29;;;;;;;17.83;8.17;;;;;;;3.22;99.85;101174.30;648553;218;25180;-72
2021/01/18 02:58:56;;;;;;;16.30;8.50;;;;;;;3.60;98.00;101168.19;646584;217;32916;-72
2021/01/18 03:01:40;;;;;;;13.20;8.20;;;;;;;3.35;98.60;101170.67;653136;217;23697;-73
2021/01/18 03:04:08;;;;;;;17.10;8.90;;;;;;;3.70;98.01;101171.52;637716;221;33003;-72
2021/01/18 03:06:38;;;;;;;10.60;7.50;;;;;;;3.39;98.20;101170.09;647672;221;23704;-72
2021/01/18 03:09:08;;;;;;;11.70;7.73;;;;;;;3.30;98.70;101180.36;642994;221;24798;-72
2021/01/18 03:11:36;;;;;;;17.70;7.37;;;;;;;3.20;99.35;101179.14;644642;220;24808;-72
2021/01/18 03:14:04;;;;;;;18.37;8.03;;;;;;;3.27;98.76;101174.09;646342;221;24626;-72
2021/01/18 03:16:32;;;;;;;14.68;10.40;;;;;;;3.28;98.72;101178.33;635946;221;32671;-72
2021/01/18 03:19:00;;;;;;;13.50;9.00;;;;;;;2.91;100.00;101188.23;643771;220;23679;-72
2021/01/18 03:21:28;;;;;;;21.47;10.40;;;;;;;2.81;100.00;101183.14;640033;221;24842;-72
2021/01/18 03:23:56;;;;;;;24.47;9.30;;;;;;;2.77;100.00;101191.45;641217;221;24804;-71
2021/01/18 03:26:25;;;;;;;12.43;7.47;;;;;;;2.76;100.00;101196.20;642848;222;24902;-72
2021/01/18 03:28:52;;;;;;;14.00;7.30;;;;;;;2.77;100.00;101200.44;637576;221;25137;-72
2021/01/18 03:31:20;;;;;;;15.47;8.13;;;;;;;2.70;100.00;101184.11;640639;221;24889;-71
2021/01/18 03:33:48;;;;;;;15.40;8.47;;;;;;;2.76;100.00;101186.39;647364;220;24917;-71
2021/01/18 03:36:16;;;;;;;13.83;8.97;;;;;;;2.73;100.00;101192.95;644225;221;24965;-72
2021/01/18 03:38:44;;;;;;;13.63;7.93;;;;;;;2.76;100.00;101191.06;636757;221;27963;-72
2021/01/18 03:41:13;;;;;;;16.70;8.00;;;;;;;2.80;100.00;101187.45;647533;221;24808;-73
2021/01/18 03:43:40;;;;;;;16.07;8.60;;;;;;;2.78;100.00;101188.42;638669;222;24823;-73
2021/01/18 03:46:08;;;;;;;17.27;9.07;;;;;;;2.86;100.00;101189.75;637840;222;24819;-73
2021/01/18 03:48:36;;;;;;;15.60;9.28;;;;;;;3.05;100.00;101191.44;639924;221;32752;-72
2021/01/18 03:51:05;;;;;;;16.27;9.73;;;;;;;3.00;100.00;101189.09;644699;222;25041;-73
2021/01/18 03:53:33;;;;;;;12.93;8.03;;;;;;;3.17;100.00;101193.42;639933;222;25843;-73
2021/01/18 03:56:01;;;;;;;16.13;7.40;;;;;;;3.32;100.00;101195.26;645716;218;27054;-73
2021/01/18 03:58:29;;;;;;;12.50;8.13;;;;;;;3.40;99.84;101194.44;649573;219;25032;-73
2021/01/18 04:00:57;;;;;;;18.10;7.93;;;;;;;3.28;100.00;101201.46;651710;219;24760;-72
2021/01/18 04:03:27;;;;;;;18.70;8.80;;;;;;;3.14;100.00;101196.16;645023;222;24757;-72
2021/01/18 04:05:52;;;;;;;12.63;8.13;;;;;;;3.07;100.00;101201.19;648336;219;24759;-72
2021/01/18 04:08:20;;;;;;;13.40;8.63;;;;;;;3.02;100.00;101196.73;639165;222;24800;-72
2021/01/18 04:10:48;;;;;;;16.07;8.80;;;;;;;3.03;100.00;101198.39;642168;222;24808;-72
2021/01/18 04:13:16;;;;;;;23.30;8.70;;;;;;;2.94;100.00;101205.62;640244;221;24811;-72
2021/01/18 04:15:44;;;;;;;16.23;8.70;;;;;;;3.10;100.00;101202.35;647839;221;24804;-72
2021/01/18 04:18:12;;;;;;;21.93;9.63;;;;;;;3.04;100.00;101199.60;644238;221;24808;-72
2021/01/18 04:20:40;;;;;;;14.13;8.97;;;;;;;2.82;100.00;101202.36;644905;221;24916;-72
2021/01/18 04:23:08;;;;;;;16.00;8.50;;;;;;;2.70;100.00;101201.64;646840;220;27985;-72
2021/01/18 04:25:36;;;;;;;13.10;8.30;;;;;;;2.66;100.00;101199.64;630486;225;24915;-72
2021/01/18 04:28:04;;;;;;;14.77;9.50;;;;;;;2.55;100.00;101204.91;646436;221;24838;-72
2021/01/18 04:30:32;;;;;;;19.27;10.37;;;;;;;2.44;100.00;101203.27;643803;221;26011;-73
2021/01/18 04:33:00;;;;;;;15.95;10.60;;;;;;;2.50;100.00;101205.09;642826;217;32669;-73
2021/01/18 04:35:28;;;;;;;26.23;11.50;;;;;;;2.48;100.00;101203.50;656768;218;23649;-72
2021/01/18 04:37:56;;;;;;;24.90;9.37;;;;;;;2.66;100.00;101200.09;646004;221;24814;-72
2021/01/18 04:40:24;;;;;;;13.37;8.80;;;;;;;2.78;100.00;101199.53;644800;221;25050;-73
2021/01/18 04:42:52;;;;;;;17.80;8.50;;;;;;;2.79;100.00;101201.20;644860;221;28037;-72
2021/01/18 04:45:20;;;;;;;19.40;9.57;;;;;;;3.02;100.00;101200.13;655199;217;24763;-72
2021/01/18 04:47:48;;;;;;;25.73;8.77;;;;;;;3.02;100.00;101205.72;654074;217;24757;-71
2021/01/18 04:50:15;;;;;;;11.70;7.83;;;;;;;3.08;100.00;101203.69;642372;221;24802;-72
2021/01/18 04:52:51;;;;;;;21.50;8.17;;;;;;;3.14;100.00;101197.44;643032;222;24997;-72
2021/01/18 04:55:27;;;;;;;13.77;8.20;;;;;;;3.21;100.00;101197.50;641055;222;24823;-72
2021/01/18 04:58:07;;;;;;;17.67;7.80;;;;;;;3.12;100.00;101193.66;630164;225;24857;-73
2021/01/18 05:00:36;;;;;;;21.20;8.87;;;;;;;3.17;100.00;101198.11;640598;221;24823;-72
2021/01/18 05:03:06;;;;;;;17.87;7.87;;;;;;;2.95;100.00;101194.89;640634;224;27988;-71
2021/01/18 05:05:38;;;;;;;15.33;8.20;;;;;;;3.06;100.00;101204.21;641565;222;24822;-72
2021/01/18 05:08:07;;;;;;;17.60;7.97;;;;;;;3.03;100.00;101196.66;639550;222;24810;-72
2021/01/18 05:10:35;;;;;;;13.83;7.33;;;;;;;3.15;100.00;101203.78;645686;221;24804;-72
2021/01/18 05:13:03;;;;;;;18.87;8.47;;;;;;;3.19;99.43;101201.89;639988;222;25060;-73
2021/01/18 05:15:31;;;;;;;20.30;10.70;;;;;;;3.45;99.24;101205.78;638620;221;33047;-73
2021/01/18 05:18:00;;;;;;;13.80;9.17;;;;;;;2.95;100.00;101212.42;637288;221;24052;-74
2021/01/18 05:20:28;;;;;;;16.20;8.83;;;;;;;3.13;100.00;101213.77;640215;221;24807;-72
2021/01/18 05:23:07;;;;;;;20.00;9.10;;;;;;;3.30;99.57;101216.35;645791;222;26918;-71
2021/01/18 05:25:28;;;;;;;17.23;8.60;;;;;;;3.15;99.18;101211.95;647538;220;25970;-72
2021/01/18 05:28:00;;;;;;;17.03;8.73;;;;;;;3.30;98.98;101220.21;643835;221;24808;-72
2021/01/18 05:30:29;;;;;;;15.00;8.20;;;;;;;3.12;99.08;101213.39;647719;218;25036;-71
2021/01/18 05:33:04;;;;;;;15.93;8.60;;;;;;;3.08;100.00;101221.67;645246;221;24829;-72
2021/01/18 05:35:32;;;;;;;17.60;8.50;;;;;;;2.99;100.00;101225.98;648639;221;24801;-73
2021/01/18 05:38:01;;;;;;;15.83;8.33;;;;;;;2.87;100.00;101224.80;644198;221;24806;-72
2021/01/18 05:40:29;;;;;;;13.77;7.80;;;;;;;3.07;100.00;101226.44;647154;220;24821;-72
2021/01/18 05:43:00;;;;;;;19.23;9.40;;;;;;;3.08;100.00;101233.23;646842;221;24758;-73
2021/01/18 05:45:29;;;;;;;13.03;8.50;;;;;;;3.04;99.92;101232.17;650486;219;24821;-73
2021/01/18 05:47:57;;;;;;;18.53;9.07;;;;;;;3.07;99.69;101234.59;659281;217;24784;-72
2021/01/18 05:50:26;;;;;;;17.20;8.20;;;;;;;2.98;100.00;101246.16;653790;217;25952;-72
2021/01/18 05:52:53;;;;;;;18.50;9.70;;;;;;;2.94;100.00;101249.75;646289;218;24766;-72
2021/01/18 05:55:22;;;;;;;18.13;9.40;;;;;;;2.63;100.00;101247.74;640589;221;24811;-72
2021/01/18 05:57:50;;;;;;;18.90;9.40;;;;;;;2.62;100.00;101250.77;645094;221;24814;-72
2021/01/18 06:00:32;;;;;;;20.23;8.83;;;;;;;2.68;100.00;101252.24;651987;217;24753;-73
2021/01/18 06:03:00;;;;;;;18.00;9.13;;;;;;;2.59;100.00;101251.36;641824;222;24833;-73
2021/01/18 06:05:29;;;;;;;20.00;8.87;;;;;;;2.65;100.00;101254.92;642976;221;24815;-72
2021/01/18 06:08:09;;;;;;;16.43;9.67;;;;;;;2.67;100.00;101253.12;641460;222;24797;-72
2021/01/18 06:10:37;;;;;;;18.63;9.57;;;;;;;2.60;100.00;101255.59;654178;217;24787;-73
2021/01/18 06:13:05;;;;;;;22.57;10.03;;;;;;;2.67;100.00;101255.69;644576;221;28023;-73
2021/01/18 06:15:32;;;;;;;18.13;9.47;;;;;;;2.86;100.00;101253.97;628156;225;24868;-72
2021/01/18 06:18:01;;;;;;;38.20;18.80;;;;;;;2.84;100.00;101257.52;651983;217;24745;-73
2021/01/18 06:20:29;;;;;;;68.77;29.00;;;;;;;2.83;100.00;101261.82;650653;217;24961;-74
2021/01/18 06:22:57;;;;;;;19.53;10.90;;;;;;;2.92;100.00;101256.69;644031;221;24870;-72
2021/01/18 06:25:25;;;;;;;23.62;12.63;;;;;;;3.41;99.22;101258.27;632294;222;32903;-72
2021/01/18 06:27:53;;;;;;;19.60;12.27;;;;;;;3.14;99.50;101255.27;651292;217;23964;-72
2021/01/18 06:30:24;;;;;;;58.43;29.80;;;;;;;2.83;100.00;101255.40;650378;217;24759;-72
2021/01/18 06:32:52;;;;;;;31.70;19.73;;;;;;;2.82;100.00;101255.47;650618;217;24749;-72
2021/01/18 06:35:25;;;;;;;21.50;12.00;;;;;;;2.87;100.00;101254.34;654148;217;25021;-71
2021/01/18 06:37:57;;;;;;;19.80;10.03;;;;;;;2.74;100.00;101255.80;644032;221;24832;-72
2021/01/18 06:40:30;;;;;;;18.83;11.00;;;;;;;2.72;100.00;101256.33;644121;221;24835;-72
2021/01/18 06:42:58;;;;;;;23.30;13.78;;;;;;;3.08;100.00;101254.25;635981;221;32868;-74
2021/01/18 06:45:32;;;;;;;16.50;11.30;;;;;;;3.19;99.94;101251.55;631973;221;43202;-72
2021/01/18 06:48:00;;;;;;;20.45;11.38;;;;;;;3.05;99.84;101255.23;636313;221;32736;-73
2021/01/18 06:50:31;;;;;;;15.50;8.50;;;;;;;2.72;100.00;101257.61;648582;220;24807;-72
2021/01/18 06:52:59;;;;;;;18.80;10.00;;;;;;;2.72;100.00;101263.20;637741;221;43419;-72
2021/01/18 06:55:27;;;;;;;15.27;8.30;;;;;;;2.58;100.00;101258.69;639720;221;23662;-72
2021/01/18 06:58:03;;;;;;;15.13;7.27;;;;;;;2.76;100.00;101260.42;651417;217;24766;-73
2021/01/18 07:00:31;;;;;;;12.03;7.30;;;;;;;2.90;100.00;101266.21;641341;221;26951;-73
2021/01/18 07:03:00;;;;;;;13.53;6.30;;;;;;;2.76;100.00;101274.55;644808;221;24797;-72
2021/01/18 07:05:35;;;;;;;17.03;7.03;;;;;;;2.76;100.00;101275.83;653560;217;24737;-73
2021/01/18 07:08:12;;;;;;;13.83;6.90;;;;;;;2.76;100.00;101281.42;642267;221;24813;-73
2021/01/18 07:10:41;;;;;;;13.90;7.17;;;;;;;2.63;100.00;101286.27;655895;217;25057;-73
2021/01/18 07:13:09;;;;;;;27.20;14.00;;;;;;;2.74;100.00;101296.06;651565;217;24821;-74
2021/01/18 07:15:39;;;;;;;10.80;6.17;;;;;;;2.71;100.00;101299.61;652006;217;24750;-73
2021/01/18 07:18:08;;;;;;;13.93;6.50;;;;;;;2.83;100.00;101304.20;642457;222;24779;-73
2021/01/18 07:20:40;;;;;;;16.73;7.70;;;;;;;3.19;100.00;101307.27;633338;222;32987;-72
2021/01/18 07:23:29;;;;;;;16.20;7.97;;;;;;;3.13;100.00;101305.00;640021;222;23703;-72
2021/01/18 07:26:23;;;;;;;16.80;7.60;;;;;;;2.84;100.00;101302.02;637571;222;25117;-72
2021/01/18 07:28:55;;;;;;;20.40;9.85;;;;;;;3.27;99.28;101302.63;649178;218;32595;-74
2021/01/18 07:31:22;;;;;;;21.70;8.13;;;;;;;3.07;99.89;101307.83;645519;222;23665;-72
2021/01/18 07:33:50;;;;;;;14.00;7.00;;;;;;;3.08;100.00;101312.06;650071;218;24762;-73
2021/01/18 07:36:25;;;;;;;20.77;8.57;;;;;;;3.21;100.00;101325.57;649745;218;24824;-72
2021/01/18 07:38:53;;;;;;;16.97;7.77;;;;;;;2.98;100.00;101325.80;651746;218;24810;-72
2021/01/18 07:41:29;;;;;;;21.85;9.38;;;;;;;3.27;100.00;101329.61;638257;222;32743;-72
2021/01/18 07:43:49;;;;;;;13.77;7.53;;;;;;;3.17;100.00;101329.19;641171;221;23732;-72
2021/01/18 07:46:39;;;;;;;15.27;7.30;;;;;;;3.26;100.00;101330.06;640634;221;27945;-72
2021/01/18 07:49:31;;;;;;;15.83;7.37;;;;;;;3.01;100.00;101331.25;642732;221;24810;-73
2021/01/18 07:52:09;;;;;;;13.80;7.70;;;;;;;2.96;100.00;101334.87;648224;220;24804;-72
2021/01/18 07:54:38;;;;;;;17.03;7.40;;;;;;;3.00;100.00;101334.72;628834;226;24852;-72
2021/01/18 07:57:28;;;;;;;15.60;7.70;;;;;;;3.00;100.00;101339.86;638319;221;24889;-72
2021/01/18 08:00:07;;;;;;;13.27;7.70;;;;;;;3.01;100.00;101331.25;645769;221;24799;-72
2021/01/18 08:02:35;;;;;;;22.60;7.53;;;;;;;3.21;100.00;101333.73;636269;221;24828;-73
2021/01/18 08:05:22;;;;;;;15.83;7.43;;;;;;;3.28;100.00;101341.11;643133;221;24802;-72
2021/01/18 08:08:01;;;;;;;14.20;7.17;;;;;;;3.29;100.00;101334.23;655296;217;24765;-73
2021/01/18 08:10:51;;;;;;;17.53;7.60;;;;;;;3.40;100.00;101341.45;651154;218;24858;-73
2021/01/18 08:13:31;;;;;;;16.20;7.87;;;;;;;3.24;100.00;101339.59;651523;218;25796;-73
2021/01/18 08:15:59;;;;;;;13.43;8.00;;;;;;;3.39;100.00;101338.05;647116;218;24739;-73
2021/01/18 08:18:28;;;;;;;14.57;8.13;;;;;;;3.39;100.00;101330.79;647009;221;24766;-73
2021/01/18 08:20:56;;;;;;;15.00;8.17;;;;;;;3.45;100.00;101330.48;652439;219;24781;-72
2021/01/18 08:23:41;;;;;;;15.23;8.03;;;;;;;3.46;100.00;101331.70;642815;221;24836;-72
2021/01/18 08:26:09;;;;;;;16.60;8.33;;;;;;;3.36;100.00;101327.05;641603;221;24798;-72
2021/01/18 08:28:37;;;;;;;14.23;8.10;;;;;;;3.59;100.00;101328.09;642789;222;24849;-73
2021/01/18 08:31:05;;;;;;;20.23;9.83;;;;;;;4.03;97.90;101333.66;645725;218;32573;-73
2021/01/18 08:33:33;;;;;;;16.13;8.37;;;;;;;3.60;98.92;101336.19;634787;222;25890;-73
2021/01/18 08:36:01;;;;;;;17.50;8.33;;;;;;;3.53;100.00;101342.09;648372;219;24832;-73
2021/01/18 08:38:30;;;;;;;13.47;8.23;;;;;;;3.05;100.00;101353.33;637849;222;24811;-72
2021/01/18 08:41:04;;;;;;;16.83;8.93;;;;;;;3.07;100.00;101343.36;645747;218;24750;-73
2021/01/18 08:43:55;;;;;;;19.50;9.20;;;;;;;3.11;100.00;101349.22;645932;222;27947;-72
2021/01/18 08:46:33;;;;;;;19.80;9.10;;;;;;;3.29;100.00;101345.80;636359;222;24812;-72
2021/01/18 08:49:28;;;;;;;18.00;8.10;;;;;;;3.37;100.00;101347.55;639387;221;24764;-74
2021/01/18 08:51:56;;;;;;;18.20;8.93;;;;;;;3.39;100.00;101343.19;649724;221;24798;-74
2021/01/18 08:54:31;;;;;;;21.03;9.70;;;;;;;3.52;100.00;101337.86;630879;222;43569;-72
2021/01/18 08:57:09;;;;;;;18.40;8.53;;;;;;;3.47;100.00;101343.65;641741;222;24791;-72
2021/01/18 08:59:37;;;;;;;16.50;8.50;;;;;;;3.64;100.00;101337.70;645504;219;26946;-72
2021/01/18 09:02:06;;;;;;;22.50;10.00;;;;;;;3.63;100.00;101345.04;648663;217;24927;-72
2021/01/18 09:04:33;;;;;;;21.85;10.00;;;;;;;4.01;99.35;101341.91;653237;217;43280;-72
2021/01/18 09:07:03;;;;;;;18.23;9.50;;;;;;;3.77;99.56;101341.36;659963;217;24882;-72
2021/01/18 09:09:32;;;;;;;19.10;9.03;;;;;;;3.82;100.00;101344.56;649923;217;24776;-73
2021/01/18 09:12:02;;;;;;;14.73;9.47;;;;;;;3.60;99.70;101342.63;651243;217;24750;-72
2021/01/18 09:14:30;;;;;;;15.30;8.67;;;;;;;3.48;100.00;101347.88;652772;217;24767;-72
2021/01/18 09:17:07;;;;;;;12.87;8.17;;;;;;;3.72;100.00;101348.47;651030;217;24755;-72
2021/01/18 09:19:35;;;;;;;19.53;9.10;;;;;;;3.87;99.97;101349.47;661537;217;24759;-75
2021/01/18 09:22:03;;;;;;;18.53;8.53;;;;;;;3.66;99.79;101348.78;653290;217;24749;-73
2021/01/18 09:24:30;;;;;;;13.70;8.17;;;;;;;3.42;100.00;101353.33;656169;217;24762;-74
2021/01/18 09:26:58;;;;;;;14.27;8.70;;;;;;;3.60;100.00;101348.22;658325;217;24745;-72
2021/01/18 09:29:26;;;;;;;19.70;9.53;;;;;;;3.90;100.00;101342.05;650512;217;24754;-72
2021/01/18 09:31:54;;;;;;;16.17;8.10;;;;;;;3.77;99.55;101335.37;648962;217;24769;-72
2021/01/18 09:34:22;;;;;;;13.63;8.73;;;;;;;3.78;99.95;101339.16;650954;217;25921;-73
2021/01/18 09:36:50;;;;;;;15.80;8.70;;;;;;;3.99;99.75;101334.73;660479;217;24773;-72
2021/01/18 09:39:20;;;;;;;14.23;8.40;;;;;;;3.97;98.52;101328.83;652028;218;24789;-72
2021/01/18 09:41:48;;;;;;;18.20;9.57;;;;;;;4.08;99.57;101326.56;650492;218;26986;-72
2021/01/18 09:44:16;;;;;;;17.13;8.77;;;;;;;3.98;98.43;101326.63;647804;218;24771;-73
2021/01/18 09:46:44;;;;;;;17.13;8.97;;;;;;;4.22;98.79;101330.16;647286;218;25028;-73
2021/01/18 09:49:11;;;;;;;16.03;8.80;;;;;;;4.24;98.96;101333.52;648984;218;24779;-73
2021/01/18 09:51:39;;;;;;;18.00;8.73;;;;;;;4.30;98.32;101330.62;635684;221;24817;-73
2021/01/18 09:54:07;;;;;;;16.80;8.20;;;;;;;4.35;97.70;101324.32;655155;217;26950;-74
2021/01/18 09:56:35;;;;;;;16.83;9.73;;;;;;;4.34;97.93;101329.55;647121;220;24798;-74
2021/01/18 09:59:03;;;;;;;12.73;8.23;;;;;;;4.44;97.48;101329.47;653088;217;24791;-72
2021/01/18 10:01:33;;;;;;;20.52;11.00;;;;;;;3.97;98.02;101334.44;650202;217;32659;-72
2021/01/18 10:04:02;;;;;;;15.63;9.10;;;;;;;3.84;100.00;101341.91;659683;217;23648;-72
2021/01/18 10:06:28;;;;;;;16.33;8.83;;;;;;;4.08;100.00;101347.58;648614;217;24765;-73
2021/01/18 10:08:56;;;;;;;16.73;9.30;;;;;;;3.85;100.00;101341.83;653906;217;24740;-73
2021/01/18 10:11:26;;;;;;;17.20;9.53;;;;;;;3.98;100.00;101343.81;656069;216;24817;-73
2021/01/18 10:14:01;;;;;;;15.57;8.30;;;;;;;4.06;99.93;101337.36;655255;217;24799;-74
2021/01/18 10:16:29;;;;;;;13.30;8.50;;;;;;;4.01;99.40;101337.22;657104;217;24771;-73
2021/01/18 10:18:57;;;;;;;15.63;8.87;;;;;;;3.92;100.00;101344.92;652116;217;24770;-72
2021/01/18 10:21:34;;;;;;;12.73;7.90;;;;;;;3.97;100.00;101339.58;644572;221;24813;-73
2021/01/18 10:24:02;;;;;;;16.60;8.30;;;;;;;4.09;100.00;101340.27;642404;221;24807;-72
2021/01/18 10:26:30;;;;;;;14.63;8.90;;;;;;;3.98;100.00;101333.06;642686;221;26352;-73
2021/01/18 10:28:58;;;;;;;10.87;8.27;;;;;;;4.41;99.11;101330.92;654309;217;24780;-73
2021/01/18 10:31:26;;;;;;;11.20;7.87;;;;;;;4.57;97.86;101326.64;642848;221;24800;-73
2021/01/18 10:34:05;;;;;;;17.97;9.27;;;;;;;4.39;98.16;101332.75;646166;221;24829;-72
2021/01/18 10:36:33;;;;;;;15.03;8.70;;;;;;;4.24;98.91;101329.20;628676;225;27010;-73
2021/01/18 10:39:01;;;;;;;13.23;7.93;;;;;;;4.05;99.44;101326.69;640602;221;24797;-73
2021/01/18 10:41:32;;;;;;;17.23;8.00;;;;;;;3.93;99.65;101332.44;648709;217;26866;-74
2021/01/18 10:44:02;;;;;;;13.70;7.20;;;;;;;4.08;99.34;101325.28;650597;218;24776;-74
2021/01/18 10:46:30;;;;;;;12.60;7.50;;;;;;;3.93;99.45;101328.58;653662;218;24753;-72
2021/01/18 10:48:58;;;;;;;11.20;7.20;;;;;;;4.15;99.49;101327.91;655865;218;24749;-73
2021/01/18 10:51:26;;;;;;;12.10;6.90;;;;;;;4.06;98.97;101321.92;640990;222;28011;-73
2021/01/18 10:53:57;;;;;;;12.07;6.70;;;;;;;4.35;98.46;101320.91;650922;218;25164;-72
2021/01/18 10:56:30;;;;;;;10.83;6.60;;;;;;;4.61;97.90;101322.16;647595;218;24759;-73
2021/01/18 10:58:58;;;;;;;14.20;7.10;;;;;;;4.38;97.55;101319.50;651130;218;25032;-73
2021/01/18 11:01:26;;;;;;;12.73;6.47;;;;;;;4.28;97.89;101315.72;646941;218;24774;-73
2021/01/18 11:03:54;;;;;;;13.77;7.13;;;;;;;4.34;98.21;101316.22;647422;218;24770;-72
2021/01/18 11:06:22;;;;;;;9.47;5.83;;;;;;;4.51;97.66;101309.41;645868;218;24770;-74
2021/01/18 11:08:52;;;;;;;9.53;6.30;;;;;;;4.70;97.12;101307.52;646872;222;24774;-73
2021/01/18 11:11:21;;;;;;;8.10;6.23;;;;;;;4.67;96.61;101298.22;641207;222;24780;-74
2021/01/18 11:13:49;;;;;;;13.47;5.10;;;;;;;4.42;96.00;101297.36;657435;217;24758;-73
2021/01/18 11:16:17;;;;;;;10.07;5.13;;;;;;;4.35;96.18;101293.42;637945;222;24820;-71
2021/01/18 11:18:45;;;;;;;10.13;5.90;;;;;;;4.25;96.86;101298.68;633779;222;32736;-72
2021/01/18 11:21:13;;;;;;;13.17;6.00;;;;;;;4.26;97.00;101296.94;652328;217;23636;-72
2021/01/18 11:23:41;;;;;;;8.20;5.30;;;;;;;4.43;97.58;101300.77;642294;220;24840;-72
2021/01/18 11:26:10;;;;;;;9.10;6.70;;;;;;;4.56;97.17;101295.36;648501;221;24777;-72
2021/01/18 11:28:38;;;;;;;13.20;6.47;;;;;;;4.56;96.70;101290.20;643400;220;24840;-72
2021/01/18 11:31:06;;;;;;;10.30;5.80;;;;;;;4.64;97.29;101290.62;645311;221;24802;-72